Time;durP1;ratioP1;P1;durP2;ratioP2;P2;SDS_P1;SDS_P2;PMS_P1;PMS_P2;Temp;Humidity;BMP_temperature;BMP_pressure;BME280_temperature;BME280_humidity;BME280_pressure;Samples;Min_cycle;Max_cycle;Signal;HPM_P1;HPM_P2
2023/07/30 00:01:35;;;;;;;;;;;;;;;18.52;43.34;100012.16;4867487;28;99839;-79
2023/07/30 00:04:02;;;;;;;;;;;;;;;18.50;43.33;100013.63;4886050;28;99355;-78
2023/07/30 00:06:29;;;;;;;;;;;;;;;18.50;43.39;100019.06;4886693;28;98051;-79
2023/07/30 00:08:55;;;;;;;;;;;;;;;18.45;43.50;100009.16;4888719;28;98304;-72
2023/07/30 00:11:22;;;;;;;;;;;;;;;18.44;43.53;100014.97;4871437;28;100583;-72
2023/07/30 00:13:51;;;;;;;;;;;;;;;18.39;43.60;100014.03;4868862;28;98805;-72
2023/07/30 00:16:18;;;;;;;;;;;;;;;18.35;43.33;100009.53;4871927;28;98584;-79
2023/07/30 00:18:44;;;;;;;;;;;;;;;18.33;43.44;100009.06;4893231;28;97926;-78
2023/07/30 00:21:10;;;;;;;;;;;;;;;18.31;43.46;100006.69;4889725;28;98167;-78
2023/07/30 00:23:38;;;;;;;;;;;;;;;18.30;43.67;100009.72;4906461;28;99286;-72
2023/07/30 00:26:04;;;;;;;;;;;;;;;18.27;43.54;100011.19;4887655;28;98117;-72
2023/07/30 00:28:31;;;;;;;;;;;;;;;18.26;43.58;100015.03;4886923;28;98104;-72
2023/07/30 00:30:57;;;;;;;;;;;;;;;18.26;43.42;100006.06;4888396;28;98630;-78
2023/07/30 00:33:27;;;;;;;;;;;;;;;18.25;43.65;100007.19;4900663;28;99386;-72
2023/07/30 00:35:56;;;;;;;;;;;;;;;18.23;43.48;100009.44;4887991;28;98112;-72
2023/07/30 00:38:24;;;;;;;;;;;;;;;18.20;43.53;100007.41;4889614;28;99665;-72
2023/07/30 00:40:51;;;;;;;;;;;;;;;18.17;43.59;100008.03;4889591;28;98209;-79
2023/07/30 00:43:18;;;;;;;;;;;;;;;18.12;43.63;100007.09;4888190;28;98056;-72
2023/07/30 00:45:45;;;;;;;;;;;;;;;18.08;43.50;100002.66;4884153;28;98040;-78
2023/07/30 00:48:14;;;;;;;;;;;;;;;18.06;43.51;100004.88;4874258;28;98308;-72
2023/07/30 00:50:43;;;;;;;;;;;;;;;18.02;43.54;99996.56;4889125;28;98123;-72
2023/07/30 00:53:11;;;;;;;;;;;;;;;18.00;43.50;99996.09;4885413;28;98335;-72
2023/07/30 00:55:39;;;;;;;;;;;;;;;17.99;43.68;99990.97;4906760;28;98164;-72
2023/07/30 00:58:06;;;;;;;;;;;;;;;17.96;43.67;99997.88;4903946;28;97951;-79
2023/07/30 01:00:32;;;;;;;;;;;;;;;17.95;43.63;99990.00;4903760;28;98037;-79
2023/07/30 01:02:58;;;;;;;;;;;;;;;17.94;43.68;99981.03;4890311;28;98370;-72
2023/07/30 01:05:25;;;;;;;;;;;;;;;17.92;43.43;99980.59;4899255;28;98275;-72
2023/07/30 01:07:52;;;;;;;;;;;;;;;17.92;43.48;99996.94;4888374;28;98024;-72
2023/07/30 01:10:19;;;;;;;;;;;;;;;17.88;43.70;100002.25;4875294;28;99698;-78
2023/07/30 01:12:48;;;;;;;;;;;;;;;17.85;43.66;100002.91;4895568;28;98059;-72
2023/07/30 01:15:17;;;;;;;;;;;;;;;17.81;43.71;99999.22;4865957;28;98436;-71
2023/07/30 01:17:46;;;;;;;;;;;;;;;17.78;43.59;99990.91;4877367;28;98213;-72
2023/07/30 01:20:13;;;;;;;;;;;;;;;17.76;43.62;99987.69;4872069;28;98014;-72
2023/07/30 01:22:39;;;;;;;;;;;;;;;17.74;43.70;100000.81;4905069;28;98792;-79
2023/07/30 01:25:07;;;;;;;;;;;;;;;17.72;43.60;100000.34;4887207;28;98159;-72
2023/07/30 01:27:40;;;;;;;;;;;;;;;17.71;43.60;100004.19;4900825;28;98235;-72
2023/07/30 01:30:27;;;;;;;;;;;;;;;17.65;43.59;100004.38;4903363;28;98285;-78
2023/07/30 01:32:54;;;;;;;;;;;;;;;17.60;43.75;100003.75;4907063;28;98753;-78
2023/07/30 01:35:27;;;;;;;;;;;;;;;17.53;43.78;99998.81;4870420;28;98332;-72
2023/07/30 01:37:54;;;;;;;;;;;;;;;17.48;43.90;100003.63;4889293;28;98435;-78
2023/07/30 01:40:21;;;;;;;;;;;;;;;17.41;43.86;99999.47;4877072;28;98357;-78
2023/07/30 01:42:49;;;;;;;;;;;;;;;17.39;43.79;100007.16;4905497;28;98243;-78
2023/07/30 01:45:15;;;;;;;;;;;;;;;17.36;43.72;100007.00;4868657;28;99106;-78
2023/07/30 01:47:44;;;;;;;;;;;;;;;17.32;43.86;100016.94;4867204;28;99139;-72
2023/07/30 01:50:12;;;;;;;;;;;;;;;17.29;43.81;100018.41;4882110;28;98224;-75
2023/07/30 01:52:39;;;;;;;;;;;;;;;17.29;43.69;100023.84;4887931;28;98455;-78
2023/07/30 01:55:06;;;;;;;;;;;;;;;17.30;43.85;100024.66;4865785;28;98252;-78
2023/07/30 01:57:32;;;;;;;;;;;;;;;17.29;43.77;100032.03;4899843;28;99739;-72
2023/07/30 02:00:00;;;;;;;;;;;;;;;17.26;43.71;100029.94;4885564;28;98090;-72
2023/07/30 02:02:27;;;;;;;;;;;;;;;17.26;43.78;100040.03;4905230;28;99970;-78
2023/07/30 02:04:54;;;;;;;;;;;;;;;17.21;43.83;100049.16;4872124;28;98368;-72
2023/07/30 02:07:23;;;;;;;;;;;;;;;17.17;43.81;100042.75;4888443;28;98081;-72
2023/07/30 02:09:49;;;;;;;;;;;;;;;17.16;43.86;100041.16;4894275;28;98018;-72
2023/07/30 02:12:16;;;;;;;;;;;;;;;17.15;43.81;100045.00;4879529;28;97887;-72
2023/07/30 02:14:43;;;;;;;;;;;;;;;17.12;43.89;100046.44;4873208;28;97871;-72
2023/07/30 02:17:10;;;;;;;;;;;;;;;17.11;43.81;100041.31;4906609;28;97988;-78
2023/07/30 02:19:36;;;;;;;;;;;;;;;17.09;43.79;100047.06;4873608;28;102331;-78
2023/07/30 02:22:03;;;;;;;;;;;;;;;17.08;43.86;100047.41;4921093;28;98000;-72
2023/07/30 02:24:29;;;;;;;;;;;;;;;17.08;43.76;100044.69;4874613;28;97986;-78
2023/07/30 02:26:57;;;;;;;;;;;;;;;17.09;43.72;100044.34;4923612;28;98276;-72
2023/07/30 02:29:24;;;;;;;;;;;;;;;17.11;43.76;100046.78;4889486;28;98572;-78
2023/07/30 02:31:50;;;;;;;;;;;;;;;17.11;43.86;100053.00;4884540;28;98099;-78
2023/07/30 02:34:17;;;;;;;;;;;;;;;17.13;43.88;100044.50;4876745;28;99058;-78
2023/07/30 02:36:45;;;;;;;;;;;;;;;17.13;43.90;100045.34;4876081;28;98521;-71
2023/07/30 02:39:11;;;;;;;;;;;;;;;17.14;43.88;100044.22;4890303;28;98241;-77
2023/07/30 02:41:38;;;;;;;;;;;;;;;17.15;43.87;100037.63;4894041;28;97931;-72
2023/07/30 02:44:04;;;;;;;;;;;;;;;17.17;43.84;100043.56;4884488;28;98067;-72
2023/07/30 02:46:30;;;;;;;;;;;;;;;17.17;43.79;100046.28;4871660;28;98477;-72
2023/07/30 02:48:57;;;;;;;;;;;;;;;17.17;43.93;100050.91;4873637;28;100154;-72
2023/07/30 02:51:26;;;;;;;;;;;;;;;17.14;43.74;100051.59;4887345;28;98650;-72
2023/07/30 02:53:53;;;;;;;;;;;;;;;17.12;43.91;100045.66;4873836;28;98279;-77
2023/07/30 02:56:20;;;;;;;;;;;;;;;17.09;43.91;100047.06;4911056;28;97862;-72
2023/07/30 02:58:46;;;;;;;;;;;;;;;17.09;43.75;100049.78;4876063;28;100432;-78
2023/07/30 03:01:13;;;;;;;;;;;;;;;17.07;43.87;100051.25;4888674;28;130910;-78
2023/07/30 03:03:42;;;;;;;;;;;;;;;17.05;43.85;100051.56;4877747;28;98066;-71
2023/07/30 03:06:09;;;;;;;;;;;;;;;17.03;43.94;100056.53;4872746;28;98040;-77
2023/07/30 03:08:36;;;;;;;;;;;;;;;17.01;43.83;100047.88;4911220;28;98043;-72
2023/07/30 03:11:04;;;;;;;;;;;;;;;17.01;43.96;100049.81;4891310;28;99167;-72
2023/07/30 03:13:31;;;;;;;;;;;;;;;17.01;44.18;100063.41;4904532;28;97920;-72
2023/07/30 03:15:58;;;;;;;;;;;;;;;17.01;43.98;100060.69;4894013;28;99030;-72
2023/07/30 03:18:24;;;;;;;;;;;;;;;17.01;43.84;100057.97;4872996;28;99139;-72
2023/07/30 03:20:51;;;;;;;;;;;;;;;17.00;43.92;100059.09;4872586;28;98306;-78
2023/07/30 03:23:18;;;;;;;;;;;;;;;16.99;43.90;100058.31;4906172;28;99581;-72
2023/07/30 03:25:45;;;;;;;;;;;;;;;16.97;43.88;100055.09;4864747;28;98510;-72
2023/07/30 03:28:13;;;;;;;;;;;;;;;16.95;43.93;100054.63;4893038;28;98115;-72
2023/07/30 03:30:40;;;;;;;;;;;;;;;16.94;43.84;100053.03;4877258;28;98041;-77
2023/07/30 03:33:07;;;;;;;;;;;;;;;16.97;44.05;100054.28;4886777;28;100117;-78
2023/07/30 03:35:33;;;;;;;;;;;;;;;16.97;43.86;100055.09;4875191;28;98089;-77
2023/07/30 03:38:00;;;;;;;;;;;;;;;16.97;43.93;100057.81;4908864;28;98123;-77
2023/07/30 03:40:29;;;;;;;;;;;;;;;16.97;43.91;100054.28;4893439;28;98141;-72
2023/07/30 03:42:56;;;;;;;;;;;;;;;16.96;44.15;100056.22;4887738;28;100861;-77
2023/07/30 03:45:23;;;;;;;;;;;;;;;16.97;43.91;100059.72;4890064;28;98086;-72
2023/07/30 03:47:50;;;;;;;;;;;;;;;16.97;43.83;100052.34;4910599;28;98700;-72
2023/07/30 03:50:17;;;;;;;;;;;;;;;17.01;43.94;100056.03;4870641;28;98121;-72
2023/07/30 03:52:44;;;;;;;;;;;;;;;17.03;43.93;100061.97;4891569;28;98339;-78
2023/07/30 03:55:10;;;;;;;;;;;;;;;17.08;43.90;100061.03;4892488;28;98009;-77
2023/07/30 03:57:37;;;;;;;;;;;;;;;17.13;43.80;100056.22;4909667;28;99821;-77
2023/07/30 04:00:04;;;;;;;;;;;;;;;17.18;43.72;100053.34;4891363;28;99537;-72
2023/07/30 04:02:31;;;;;;;;;;;;;;;17.24;43.77;100061.34;4873586;28;98044;-77
2023/07/30 04:04:57;;;;;;;;;;;;;;;17.28;43.67;100065.03;4891398;28;98374;-78
2023/07/30 04:07:25;;;;;;;;;;;;;;;17.30;43.85;100066.31;4908854;28;98668;-72
2023/07/30 04:09:51;;;;;;;;;;;;;;;17.38;43.75;100060.06;4891135;28;99455;-77
2023/07/30 04:12:21;;;;;;;;;;;;;;;17.45;43.69;100054.13;4918333;28;98070;-72
2023/07/30 04:14:47;;;;;;;;;;;;;;;17.50;43.67;100051.22;4889701;28;98282;-77
2023/07/30 04:17:14;;;;;;;;;;;;;;;17.54;43.56;100054.09;4887285;28;98181;-72
2023/07/30 04:19:40;;;;;;;;;;;;;;;17.57;43.74;100051.53;4874285;28;98223;-77
2023/07/30 04:22:07;;;;;;;;;;;;;;;17.61;43.86;100057.13;4888828;28;98168;-78
2023/07/30 04:24:34;;;;;;;;;;;;;;;17.64;43.50;100060.00;4906128;28;99773;-72
2023/07/30 04:27:02;;;;;;;;;;;;;;;17.66;43.49;100065.13;4888436;28;98638;-72
2023/07/30 04:29:29;;;;;;;;;;;;;;;17.70;43.51;100066.09;4900492;28;98295;-72
2023/07/30 04:31:58;;;;;;;;;;;;;;;17.75;43.44;100067.88;4901101;28;97917;-71
2023/07/30 04:34:25;;;;;;;;;;;;;;;17.79;43.41;100057.91;4867942;28;98627;-72
2023/07/30 04:36:52;;;;;;;;;;;;;;;17.81;43.66;100052.94;4869340;28;98258;-72
2023/07/30 04:39:19;;;;;;;;;;;;;;;17.83;43.48;100059.66;4903413;28;100481;-73
2023/07/30 04:41:47;;;;;;;;;;;;;;;17.90;43.40;100059.97;4870804;28;98500;-77
2023/07/30 04:44:14;;;;;;;;;;;;;;;18.02;43.23;100050.28;4872437;28;98404;-71
2023/07/30 04:46:41;;;;;;;;;;;;;;;18.15;43.20;100052.00;4886316;28;98226;-71
2023/07/30 04:49:08;;;;;;;;;;;;;;;18.25;43.38;100053.56;4866982;28;99726;-78
2023/07/30 04:51:38;;;;;;;;;;;;;;;18.32;43.23;100057.38;4874405;28;98034;-72
2023/07/30 04:54:04;;;;;;;;;;;;;;;18.38;43.27;100056.06;4895175;28;98861;-72
2023/07/30 04:56:32;;;;;;;;;;;;;;;18.44;43.23;100045.78;4890094;28;98282;-71
2023/07/30 04:59:01;;;;;;;;;;;;;;;18.50;43.19;100043.63;4905067;28;98075;-72
2023/07/30 05:01:28;;;;;;;;;;;;;;;18.57;43.09;100049.38;4882378;28;98518;-78
2023/07/30 05:03:55;;;;;;;;;;;;;;;18.62;43.12;100047.25;4892853;28;98038;-78
2023/07/30 05:06:22;;;;;;;;;;;;;;;18.65;43.10;100046.59;4871557;28;98372;-72
2023/07/30 05:08:49;;;;;;;;;;;;;;;18.64;43.36;100049.66;4905345;28;97982;-72
2023/07/30 05:11:15;;;;;;;;;;;;;;;18.66;43.31;100058.31;4873113;28;97940;-73
2023/07/30 05:13:43;;;;;;;;;;;;;;;18.67;43.39;100042.72;4900115;28;98159;-72
2023/07/30 05:16:10;;;;;;;;;;;;;;;18.68;43.44;100056.06;4869419;28;98228;-78
2023/07/30 05:18:38;;;;;;;;;;;;;;;18.69;43.43;100057.66;4919627;28;98120;-76
2023/07/30 05:21:04;;;;;;;;;;;;;;;18.68;43.50;100053.31;4882282;28;98317;-78
2023/07/30 05:23:34;;;;;;;;;;;;;;;18.71;43.39;100060.09;4871509;28;99550;-72
2023/07/30 05:26:00;;;;;;;;;;;;;;;18.73;43.50;100053.16;4875814;28;98660;-78
2023/07/30 05:28:27;;;;;;;;;;;;;;;18.76;43.22;100057.16;4888486;28;98360;-72
2023/07/30 05:30:53;;;;;;;;;;;;;;;18.81;43.40;100059.69;4890577;28;98236;-78
2023/07/30 05:33:20;;;;;;;;;;;;;;;18.86;43.04;100063.03;4876440;28;98639;-72
2023/07/30 05:35:47;;;;;;;;;;;;;;;18.93;43.23;100062.47;4872238;28;98264;-78
2023/07/30 05:38:14;;;;;;;;;;;;;;;19.00;43.06;100061.97;4887605;28;98021;-72
2023/07/30 05:40:43;;;;;;;;;;;;;;;19.08;43.15;100067.34;4875532;28;97980;-72
2023/07/30 05:43:09;;;;;;;;;;;;;;;19.18;43.36;100066.16;4905848;28;99573;-71
2023/07/30 05:45:36;;;;;;;;;;;;;;;19.29;42.91;100061.06;4872491;28;97990;-79
2023/07/30 05:48:02;;;;;;;;;;;;;;;19.42;42.97;100070.91;4882985;28;98145;-72
2023/07/30 05:50:29;;;;;;;;;;;;;;;19.60;42.73;100063.34;4867349;28;98073;-72
2023/07/30 05:52:56;;;;;;;;;;;;;;;19.80;42.55;100070.69;4868121;28;98505;-79
2023/07/30 05:55:25;;;;;;;;;;;;;;;20.07;42.38;100074.75;4869528;28;100158;-72
2023/07/30 05:57:55;;;;;;;;;;;;;;;20.39;42.26;100072.25;4899678;28;99369;-72
2023/07/30 06:00:21;;;;;;;;;;;;;;;20.55;42.09;100073.22;4869521;28;97959;-79
2023/07/30 06:02:48;;;;;;;;;;;;;;;20.66;42.25;100075.47;4912432;28;97893;-72
2023/07/30 06:05:15;;;;;;;;;;;;;;;20.85;42.27;100064.72;4879766;28;98715;-79
2023/07/30 06:07:42;;;;;;;;;;;;;;;21.12;41.92;100071.38;4884722;28;98800;-79
2023/07/30 06:10:09;;;;;;;;;;;;;;;21.31;41.69;100076.22;4880116;28;98136;-78
2023/07/30 06:12:36;;;;;;;;;;;;;;;21.53;41.72;100069.41;4867143;28;98660;-71
2023/07/30 06:15:05;;;;;;;;;;;;;;;21.77;41.61;100077.50;4881696;28;98759;-71
2023/07/30 06:17:32;;;;;;;;;;;;;;;21.88;41.65;100080.50;4883929;28;98199;-71
2023/07/30 06:19:58;;;;;;;;;;;;;;;21.95;41.76;100075.22;4873461;28;99488;-78
2023/07/30 06:22:26;;;;;;;;;;;;;;;21.98;41.80;100081.94;4866807;28;102407;-77
2023/07/30 06:24:55;;;;;;;;;;;;;;;22.10;41.65;100076.38;4881324;28;98343;-71
2023/07/30 06:27:23;;;;;;;;;;;;;;;22.27;41.65;100089.75;4868436;28;98173;-72
2023/07/30 06:29:51;;;;;;;;;;;;;;;22.44;41.65;100093.28;4870239;28;99396;-72
2023/07/30 06:32:17;;;;;;;;;;;;;;;22.57;41.46;100094.00;4873132;28;98212;-78
2023/07/30 06:34:46;;;;;;;;;;;;;;;22.72;41.64;100096.72;4866695;28;98246;-72
2023/07/30 06:37:12;;;;;;;;;;;;;;;22.83;41.45;100096.16;4864706;28;98709;-72
2023/07/30 06:39:43;;;;;;;;;;;;;;;22.92;41.33;100103.06;4877990;28;98286;-72
2023/07/30 06:42:11;;;;;;;;;;;;;;;23.14;41.54;100093.31;4882579;28;97890;-72
2023/07/30 06:44:38;;;;;;;;;;;;;;;23.29;41.39;100097.16;4881863;28;104854;-79
2023/07/30 06:47:05;;;;;;;;;;;;;;;23.62;41.29;100104.91;4882398;28;98790;-72
2023/07/30 06:49:33;;;;;;;;;;;;;;;23.86;41.31;100105.75;4915072;28;98261;-72
2023/07/30 06:52:00;;;;;;;;;;;;;;;24.25;40.98;100098.19;4893643;28;98219;-78
2023/07/30 06:54:28;;;;;;;;;;;;;;;24.63;40.83;100101.94;4883340;28;98369;-72
2023/07/30 06:56:54;;;;;;;;;;;;;;;24.64;40.70;100109.03;4885980;28;98404;-79
2023/07/30 06:59:21;;;;;;;;;;;;;;;24.56;40.92;100094.34;4870449;28;99649;-78
2023/07/30 07:01:48;;;;;;;;;;;;;;;24.69;41.06;100104.00;4863605;28;98100;-78
2023/07/30 07:04:18;;;;;;;;;;;;;;;25.18;40.37;100105.09;4915789;28;98181;-72
2023/07/30 07:06:46;;;;;;;;;;;;;;;25.31;40.44;100105.63;4885246;28;98626;-72
2023/07/30 07:09:13;;;;;;;;;;;;;;;25.09;41.00;100104.56;4881806;28;98417;-78
2023/07/30 07:11:40;;;;;;;;;;;;;;;24.92;41.28;100111.44;4903648;28;98477;-79
2023/07/30 07:14:10;;;;;;;;;;;;;;;24.92;41.37;100114.19;4873558;28;98423;-72
2023/07/30 07:16:36;;;;;;;;;;;;;;;25.36;40.59;100114.38;4867862;28;99702;-78
2023/07/30 07:19:03;;;;;;;;;;;;;;;26.10;40.08;100107.31;4867868;28;98039;-78
2023/07/30 07:21:30;;;;;;;;;;;;;;;26.22;40.24;100106.22;4899039;28;98475;-78
2023/07/30 07:23:57;;;;;;;;;;;;;;;26.02;40.67;100114.75;4867074;28;98035;-77
2023/07/30 07:26:24;;;;;;;;;;;;;;;26.29;40.46;100111.78;4883867;28;98032;-76
2023/07/30 07:28:51;;;;;;;;;;;;;;;26.63;40.05;100115.25;4884762;28;99290;-73
2023/07/30 07:31:18;;;;;;;;;;;;;;;26.74;40.22;100118.88;4863728;28;98140;-72
2023/07/30 07:33:46;;;;;;;;;;;;;;;27.18;39.80;100117.97;4868163;28;98368;-73
2023/07/30 07:36:17;;;;;;;;;;;;;;;26.99;40.10;100121.00;4885780;28;100138;-74
2023/07/30 07:38:44;;;;;;;;;;;;;;;27.47;39.81;100118.88;4899501;28;98183;-77
2023/07/30 07:41:17;;;;;;;;;;;;;;;28.69;38.45;100110.72;4881468;28;98518;-73
2023/07/30 07:43:44;;;;;;;;;;;;;;;29.53;38.08;100114.41;4866147;28;99485;-73
2023/07/30 07:46:13;;;;;;;;;;;;;;;30.43;37.37;100120.19;4883595;28;102842;-73
2023/07/30 07:48:44;;;;;;;;;;;;;;;31.00;37.45;100118.84;4866280;28;98083;-76
2023/07/30 07:51:12;;;;;;;;;;;;;;;31.63;37.30;100116.47;4883580;28;98169;-73
2023/07/30 07:53:39;;;;;;;;;;;;;;;32.18;36.80;100120.06;4869383;28;97932;-76
2023/07/30 07:56:05;;;;;;;;;;;;;;;32.91;36.61;100115.63;4860452;28;98287;-78
2023/07/30 07:58:32;;;;;;;;;;;;;;;33.78;35.98;100110.63;4889273;28;100079;-77
2023/07/30 08:01:01;;;;;;;;;;;;;;;34.06;36.46;100111.19;4885204;28;99765;-73
2023/07/30 08:03:32;;;;;;;;;;;;;;;33.97;36.83;100103.41;4888158;28;98012;-73
2023/07/30 08:05:59;;;;;;;;;;;;;;;35.36;35.50;100108.09;4854694;28;98152;-74
2023/07/30 08:08:26;;;;;;;;;;;;;;;36.43;34.70;100114.38;4895386;28;98187;-75
2023/07/30 08:10:54;;;;;;;;;;;;;;;36.16;35.93;100101.66;4884841;28;98540;-73
2023/07/30 08:13:21;;;;;;;;;;;;;;;34.75;37.21;100088.69;4887957;28;99988;-73
2023/07/30 08:15:47;;;;;;;;;;;;;;;33.71;38.16;100086.44;4896571;28;98484;-74
2023/07/30 08:18:14;;;;;;;;;;;;;;;33.08;38.43;100080.22;4866858;28;98457;-76
2023/07/30 08:20:41;;;;;;;;;;;;;;;33.91;37.42;100080.75;4873095;28;99913;-74
2023/07/30 08:23:07;;;;;;;;;;;;;;;36.07;35.64;100079.91;4862050;28;98611;-74
2023/07/30 08:25:34;;;;;;;;;;;;;;;37.40;34.93;100081.59;4872410;28;98132;-75
2023/07/30 08:28:03;;;;;;;;;;;;;;;38.50;34.08;100075.53;4872908;28;99245;-75
2023/07/30 08:30:31;;;;;;;;;;;;;;;39.51;33.76;100075.38;4873455;28;98386;-75
2023/07/30 08:32:57;;;;;;;;;;;;;;;36.78;36.43;100068.22;4852245;28;99038;-75
2023/07/30 08:35:24;;;;;;;;;;;;;;;38.97;34.42;100077.06;4798943;28;101014;-74
2023/07/30 08:37:51;;;;;;;;;;;;;;;40.10;33.65;100070.06;4863596;28;99107;-74
2023/07/30 08:40:20;;;;;;;;;;;;;;;40.99;33.45;100078.75;4881998;28;98323;-74
2023/07/30 08:42:48;;;;;;;;;;;;;;;41.68;33.09;100068.84;4869815;28;100951;-74
2023/07/30 08:45:14;;;;;;;;;;;;;;;42.08;33.16;100067.38;4879653;28;98142;-75
2023/07/30 08:47:41;;;;;;;;;;;;;;;41.72;33.98;100070.72;4902193;28;99207;-75
2023/07/30 08:50:07;;;;;;;;;;;;;;;42.71;33.27;100063.25;4867296;28;99143;-75
2023/07/30 08:52:35;;;;;;;;;;;;;;;43.59;32.49;100062.47;4886160;28;98331;-75
2023/07/30 08:55:01;;;;;;;;;;;;;;;44.51;31.99;100063.16;4884781;28;98189;-74
2023/07/30 08:57:28;;;;;;;;;;;;;;;44.86;32.09;100061.19;4868565;28;99348;-75
2023/07/30 09:00:08;;;;;;;;;;;;;;;44.25;32.94;100051.97;4852144;28;98816;-74
2023/07/30 09:02:38;;;;;;;;;;;;;;;45.18;32.27;100045.44;4868356;28;98107;-76
2023/07/30 09:05:09;;;;;;;;;;;;;;;44.73;32.77;100045.44;4872307;28;98328;-74
2023/07/30 09:07:35;;;;;;;;;;;;;;;43.93;33.56;100048.50;4871475;28;98987;-75
2023/07/30 09:10:02;;;;;;;;;;;;;;;42.64;34.97;100036.09;4880401;28;98178;-76
2023/07/30 09:12:32;;;;;;;;;;;;;;;41.31;35.61;100039.50;4852648;28;98721;-75
2023/07/30 09:14:59;;;;;;;;;;;;;;;39.71;37.20;100041.78;4881244;28;98324;-74
2023/07/30 09:17:26;;;;;;;;;;;;;;;40.23;36.14;100048.03;4898271;28;98033;-74
2023/07/30 09:19:55;;;;;;;;;;;;;;;38.50;37.58;100036.91;4880068;28;98323;-75
2023/07/30 09:22:27;;;;;;;;;;;;;;;38.21;37.69;100036.56;4876855;28;98552;-75
2023/07/30 09:24:56;;;;;;;;;;;;;;;36.99;38.30;100037.84;4878128;28;98122;-75
2023/07/30 09:27:26;;;;;;;;;;;;;;;36.50;38.56;100033.56;4880171;28;98133;-75
2023/07/30 09:29:59;;;;;;;;;;;;;;;36.57;38.33;100030.50;4866514;28;98250;-74
2023/07/30 09:32:29;;;;;;;;;;;;;;;37.14;37.24;100035.25;4876956;28;99050;-74
2023/07/30 09:34:57;;;;;;;;;;;;;;;38.07;36.07;100040.78;4878946;28;98161;-73
2023/07/30 09:37:27;;;;;;;;;;;;;;;39.50;35.18;100052.06;4859491;28;98354;-74
2023/07/30 09:39:53;;;;;;;;;;;;;;;38.89;35.94;100039.22;4880614;28;98069;-75
2023/07/30 09:42:20;;;;;;;;;;;;;;;40.54;34.45;100041.19;4894852;28;98244;-75
2023/07/30 09:44:48;;;;;;;;;;;;;;;42.15;32.82;100043.53;4883861;28;98575;-76
2023/07/30 09:47:15;;;;;;;;;;;;;;;43.26;32.33;100042.38;4883686;28;98274;-75
2023/07/30 09:49:42;;;;;;;;;;;;;;;43.14;32.37;100045.09;4884909;28;98628;-75
2023/07/30 09:52:08;;;;;;;;;;;;;;;40.80;34.63;100049.16;4864045;28;98599;-75
2023/07/30 09:54:35;;;;;;;;;;;;;;;42.83;32.84;100043.00;4861679;28;98061;-74
2023/07/30 09:57:03;;;;;;;;;;;;;;;44.16;31.83;100055.03;4846685;28;98215;-75
2023/07/30 09:59:30;;;;;;;;;;;;;;;44.72;31.46;100045.94;4865405;28;98241;-73
2023/07/30 10:01:57;;;;;;;;;;;;;;;44.96;31.39;100037.69;4865402;28;99901;-75
2023/07/30 10:04:23;;;;;;;;;;;;;;;43.54;33.11;100028.41;4882290;28;98294;-76
2023/07/30 10:07:03;;;;;;;;;;;;;;;42.42;34.18;100031.78;4841859;28;99166;-75
2023/07/30 10:09:32;;;;;;;;;;;;;;;42.06;34.10;100023.88;4880944;28;99003;-75
2023/07/30 10:11:58;;;;;;;;;;;;;;;42.17;34.23;100024.00;4877826;28;99104;-74
2023/07/30 10:14:28;;;;;;;;;;;;;;;41.73;34.08;100018.53;4880478;28;98343;-74
2023/07/30 10:16:56;;;;;;;;;;;;;;;40.23;35.65;100031.09;4844919;28;98598;-75
2023/07/30 10:19:29;;;;;;;;;;;;;;;40.78;34.87;100029.84;4847251;28;98328;-74
2023/07/30 10:22:13;;;;;;;;;;;;;;;39.76;35.71;100032.66;4870442;28;98364;-74
2023/07/30 10:24:40;;;;;;;;;;;;;;;38.62;36.91;100032.34;4902302;28;98376;-75
2023/07/30 10:27:07;;;;;;;;;;;;;;;38.72;36.00;100033.16;4899257;28;98186;-74
2023/07/30 10:29:41;;;;;;;;;;;;;;;38.79;35.71;100027.19;4907090;28;99841;-73
2023/07/30 10:32:09;;;;;;;;;;;;;;;38.84;35.85;100034.25;4907126;28;98534;-75
2023/07/30 10:34:48;;;;;;;;;;;;;;;39.13;35.26;100040.09;4886156;28;99487;-77
2023/07/30 10:37:19;;;;;;;;;;;;;;;38.82;35.84;100031.88;4868333;28;99126;-76
2023/07/30 10:39:47;;;;;;;;;;;;;;;37.73;36.54;100042.56;4894273;28;101335;-76
2023/07/30 10:42:18;;;;;;;;;;;;;;;37.45;36.90;100046.50;4907491;28;98207;-74
2023/07/30 10:44:46;;;;;;;;;;;;;;;36.90;37.04;100037.75;4867900;28;98377;-73
2023/07/30 10:47:13;;;;;;;;;;;;;;;36.76;36.96;100034.25;4906295;28;98379;-73
2023/07/30 10:49:41;;;;;;;;;;;;;;;39.75;34.11;100053.66;4873376;28;98561;-75
2023/07/30 10:52:08;;;;;;;;;;;;;;;39.71;34.14;100055.88;4904174;28;98366;-74
2023/07/30 10:54:35;;;;;;;;;;;;;;;38.41;35.34;100053.03;4902814;28;98235;-77
2023/07/30 10:57:02;;;;;;;;;;;;;;;37.93;35.80;100035.78;4904737;28;98958;-76
2023/07/30 10:59:36;;;;;;;;;;;;;;;40.04;33.80;100049.41;4907712;28;98298;-77
2023/07/30 11:02:03;;;;;;;;;;;;;;;40.84;33.34;100046.91;4903254;28;99833;-74
2023/07/30 11:04:32;;;;;;;;;;;;;;;41.62;33.05;100048.22;4887089;28;98454;-74
2023/07/30 11:06:59;;;;;;;;;;;;;;;42.20;32.42;100048.47;4902357;28;102597;-77
2023/07/30 11:09:26;;;;;;;;;;;;;;;42.41;32.75;100044.38;4870432;28;98258;-77
2023/07/30 11:11:53;;;;;;;;;;;;;;;42.67;32.40;100037.19;4899706;28;98080;-79
2023/07/30 11:14:27;;;;;;;;;;;;;;;42.70;32.20;100031.31;4899439;28;97979;-74
2023/07/30 11:17:00;;;;;;;;;;;;;;;42.65;32.71;100037.72;4872283;28;98507;-77
2023/07/30 11:19:27;;;;;;;;;;;;;;;42.42;32.63;100034.59;4883465;28;98171;-73
2023/07/30 11:21:54;;;;;;;;;;;;;;;42.50;32.95;100029.28;4873910;28;98360;-76
2023/07/30 11:24:24;;;;;;;;;;;;;;;42.02;33.11;100023.31;4900828;28;98273;-75
2023/07/30 11:27:00;;;;;;;;;;;;;;;39.11;36.34;100022.91;4872053;28;98552;-75
2023/07/30 11:29:28;;;;;;;;;;;;;;;38.43;36.55;100013.94;4871406;28;98323;-76
2023/07/30 11:31:59;;;;;;;;;;;;;;;40.28;34.21;100023.22;4901582;28;101020;-74
2023/07/30 11:34:27;;;;;;;;;;;;;;;39.42;35.38;100027.50;4884415;28;98416;-76
2023/07/30 11:36:54;;;;;;;;;;;;;;;39.76;34.66;100021.38;4901009;28;98559;-76
2023/07/30 11:39:22;;;;;;;;;;;;;;;39.47;35.23;100019.19;4882437;28;98509;-73
2023/07/30 11:41:49;;;;;;;;;;;;;;;39.70;34.91;100025.34;4902233;28;99745;-76
2023/07/30 11:44:35;;;;;;;;;;;;;;;39.84;34.76;100021.81;4877309;28;98239;-81
2023/07/30 11:47:03;;;;;;;;;;;;;;;40.02;34.62;100014.50;4902204;28;98030;-73
2023/07/30 11:49:30;;;;;;;;;;;;;;;40.07;34.57;100008.19;4869519;28;97947;-74
2023/07/30 11:52:10;;;;;;;;;;;;;;;39.99;34.84;100008.53;4901186;28;98560;-75
2023/07/30 11:54:36;;;;;;;;;;;;;;;39.64;34.92;100007.50;4898607;28;98535;-74
2023/07/30 11:57:03;;;;;;;;;;;;;;;39.80;34.80;100012.75;4884337;28;99167;-75
2023/07/30 11:59:31;;;;;;;;;;;;;;;39.81;34.70;100010.69;4897663;28;98178;-75
2023/07/30 12:02:02;;;;;;;;;;;;;;;39.66;34.90;100005.00;4895753;28;97941;-74
2023/07/30 12:04:32;;;;;;;;;;;;;;;39.66;34.79;100007.81;4899296;28;98699;-75
2023/07/30 12:07:02;;;;;;;;;;;;;;;39.73;34.69;100016.72;4871841;28;98122;-74
2023/07/30 12:09:30;;;;;;;;;;;;;;;39.91;34.71;100012.22;4888398;28;100971;-74
2023/07/30 12:12:01;;;;;;;;;;;;;;;39.83;34.82;100011.78;4851305;28;100022;-74
2023/07/30 12:14:46;;;;;;;;;;;;;;;39.56;35.22;100001.44;4900745;28;98085;-75
2023/07/30 12:17:14;;;;;;;;;;;;;;;39.61;35.11;100003.59;4899567;28;98831;-75
2023/07/30 12:19:41;;;;;;;;;;;;;;;39.59;35.26;99994.06;4889123;28;98988;-74
2023/07/30 12:22:09;;;;;;;;;;;;;;;39.40;35.21;99988.53;4865782;28;99390;-74
2023/07/30 12:24:36;;;;;;;;;;;;;;;39.06;35.68;99989.72;4862233;28;99954;-74
2023/07/30 12:27:02;;;;;;;;;;;;;;;38.90;35.28;99984.47;4866546;28;98676;-75
2023/07/30 12:29:28;;;;;;;;;;;;;;;38.85;35.35;99988.72;4880224;28;102938;-75
2023/07/30 12:31:55;;;;;;;;;;;;;;;38.87;35.18;99979.78;4884353;28;108599;-74
2023/07/30 12:34:22;;;;;;;;;;;;;;;39.19;35.35;99972.66;4891665;28;100063;-76
2023/07/30 12:36:49;;;;;;;;;;;;;;;39.31;35.24;99973.72;4868799;28;98055;-75
2023/07/30 12:39:15;;;;;;;;;;;;;;;39.32;35.08;99961.97;4886343;28;98555;-75